sensor_id;sensor_type;location;lat;lon;timestamp;pressure;altitude;pressure_sealevel;temperature;humidity
22572;BME280;11452;53.368;14.658;2023-04-22T00:04:02;101149.22;;;12.94;47.08
22572;BME280;11452;53.368;14.658;2023-04-22T00:09:08;101147.02;;;12.93;47.02
22572;BME280;11452;53.368;14.658;2023-04-22T00:14:13;101145.98;;;12.96;47.08
22572;BME280;11452;53.368;14.658;2023-04-22T00:19:19;101137.33;;;12.91;47.00
22572;BME280;11452;53.368;14.658;2023-04-22T00:24:25;101134.34;;;12.88;47.04
22572;BME280;11452;53.368;14.658;2023-04-22T00:29:30;101126.56;;;12.83;46.96
22572;BME280;11452;53.368;14.658;2023-04-22T00:34:36;101126.65;;;12.82;47.03
22572;BME280;11452;53.368;14.658;2023-04-22T00:39:42;101116.61;;;12.78;47.03
22572;BME280;11452;53.368;14.658;2023-04-22T00:44:48;101116.69;;;12.77;46.91
22572;BME280;11452;53.368;14.658;2023-04-22T00:49:55;101114.45;;;12.69;46.87
22572;BME280;11452;53.368;14.658;2023-04-22T00:55:01;101107.27;;;12.70;46.93
22572;BME280;11452;53.368;14.658;2023-04-22T01:00:08;101112.84;;;12.74;46.76
22572;BME280;11452;53.368;14.658;2023-04-22T01:05:14;101111.03;;;12.74;46.79
22572;BME280;11452;53.368;14.658;2023-04-22T01:10:20;101109.86;;;12.71;46.57
22572;BME280;11452;53.368;14.658;2023-04-22T01:15:27;101103.84;;;12.75;46.59
22572;BME280;11452;53.368;14.658;2023-04-22T01:20:32;101108.52;;;12.71;46.38
22572;BME280;11452;53.368;14.658;2023-04-22T01:25:39;101103.33;;;12.61;46.38
22572;BME280;11452;53.368;14.658;2023-04-22T01:30:45;101106.84;;;12.55;46.37
22572;BME280;11452;53.368;14.658;2023-04-22T01:35:50;101102.59;;;12.51;46.35
22572;BME280;11452;53.368;14.658;2023-04-22T01:40:56;101099.31;;;12.45;46.27
22572;BME280;11452;53.368;14.658;2023-04-22T01:46:01;101094.73;;;12.47;46.33
22572;BME280;11452;53.368;14.658;2023-04-22T01:51:09;101090.78;;;12.39;46.27
22572;BME280;11452;53.368;14.658;2023-04-22T01:56:14;101090.27;;;12.32;46.32
22572;BME280;11452;53.368;14.658;2023-04-22T02:01:20;101081.36;;;12.32;46.40
22572;BME280;11452;53.368;14.658;2023-04-22T02:06:26;101076.08;;;12.30;46.23
22572;BME280;11452;53.368;14.658;2023-04-22T02:11:32;101070.58;;;12.18;46.26
22572;BME280;11452;53.368;14.658;2023-04-22T02:16:39;101065.61;;;12.19;46.35
22572;BME280;11452;53.368;14.658;2023-04-22T02:21:45;101072.31;;;12.19;46.28
22572;BME280;11452;53.368;14.658;2023-04-22T02:26:51;101063.02;;;12.17;46.24
22572;BME280;11452;53.368;14.658;2023-04-22T02:31:58;101051.00;;;12.08;46.16
22572;BME280;11452;53.368;14.658;2023-04-22T02:37:03;101052.34;;;12.08;46.01
22572;BME280;11452;53.368;14.658;2023-04-22T02:42:09;101043.05;;;12.07;45.96
22572;BME280;11452;53.368;14.658;2023-04-22T02:47:16;101040.01;;;12.06;45.90
22572;BME280;11452;53.368;14.658;2023-04-22T02:52:23;101028.03;;;12.04;45.89
22572;BME280;11452;53.368;14.658;2023-04-22T02:57:29;101035.60;;;12.05;45.84
22572;BME280;11452;53.368;14.658;2023-04-22T03:02:34;101025.45;;;12.03;45.68
22572;BME280;11452;53.368;14.658;2023-04-22T03:07:45;101028.08;;;11.96;45.62
22572;BME280;11452;53.368;14.658;2023-04-22T03:12:51;101019.43;;;11.91;45.60
22572;BME280;11452;53.368;14.658;2023-04-22T03:17:57;101017.20;;;11.83;45.56
22572;BME280;11452;53.368;14.658;2023-04-22T03:23:04;101011.80;;;11.76;45.54
22572;BME280;11452;53.368;14.658;2023-04-22T03:28:11;101011.16;;;11.71;45.52
22572;BME280;11452;53.368;14.658;2023-04-22T03:33:17;101009.32;;;11.64;45.52
22572;BME280;11452;53.368;14.658;2023-04-22T03:38:25;101010.13;;;11.58;45.68
22572;BME280;11452;53.368;14.658;2023-04-22T03:43:31;101017.16;;;11.52;45.69
22572;BME280;11452;53.368;14.658;2023-04-22T03:48:41;101012.08;;;11.47;45.67
22572;BME280;11452;53.368;14.658;2023-04-22T03:53:49;101009.81;;;11.39;45.74
22572;BME280;11452;53.368;14.658;2023-04-22T03:58:56;101013.60;;;11.35;45.85
22572;BME280;11452;53.368;14.658;2023-04-22T04:04:02;101009.39;;;11.31;45.83
22572;BME280;11452;53.368;14.658;2023-04-22T04:09:10;101010.81;;;11.30;46.08
22572;BME280;11452;53.368;14.658;2023-04-22T04:14:15;101011.36;;;11.28;46.04
22572;BME280;11452;53.368;14.658;2023-04-22T04:19:22;101006.17;;;11.25;46.11
22572;BME280;11452;53.368;14.658;2023-04-22T04:24:28;101009.72;;;11.25;46.12
22572;BME280;11452;53.368;14.658;2023-04-22T04:29:36;101006.65;;;11.24;46.09
22572;BME280;11452;53.368;14.658;2023-04-22T04:34:43;101002.24;;;11.23;46.34
22572;BME280;11452;53.368;14.658;2023-04-22T04:39:50;100998.57;;;11.33;46.52
22572;BME280;11452;53.368;14.658;2023-04-22T04:44:57;101004.30;;;11.42;46.64
22572;BME280;11452;53.368;14.658;2023-04-22T04:50:03;100999.75;;;11.52;46.64
22572;BME280;11452;53.368;14.658;2023-04-22T04:55:10;101004.47;;;11.55;46.49
22572;BME280;11452;53.368;14.658;2023-04-22T05:00:17;100991.53;;;11.63;46.70
22572;BME280;11452;53.368;14.658;2023-04-22T05:05:24;101000.14;;;11.77;46.74
22572;BME280;11452;53.368;14.658;2023-04-22T05:10:30;100997.34;;;11.87;46.78
22572;BME280;11452;53.368;14.658;2023-04-22T05:15:37;100996.63;;;12.06;47.04
22572;BME280;11452;53.368;14.658;2023-04-22T05:20:43;100997.97;;;12.29;46.98
22572;BME280;11452;53.368;14.658;2023-04-22T05:25:50;101005.22;;;12.43;46.83
22572;BME280;11452;53.368;14.658;2023-04-22T05:30:57;101006.19;;;12.63;46.97
22572;BME280;11452;53.368;14.658;2023-04-22T05:36:04;101007.30;;;12.89;46.91
22572;BME280;11452;53.368;14.658;2023-04-22T05:41:10;101008.64;;;13.03;46.70
22572;BME280;11452;53.368;14.658;2023-04-22T05:46:17;101005.98;;;13.17;46.62
22572;BME280;11452;53.368;14.658;2023-04-22T05:51:23;101004.56;;;13.33;46.44
22572;BME280;11452;53.368;14.658;2023-04-22T05:56:29;101000.90;;;13.48;46.19
22572;BME280;11452;53.368;14.658;2023-04-22T06:01:36;100999.52;;;13.70;46.11
22572;BME280;11452;53.368;14.658;2023-04-22T06:06:43;100997.95;;;14.07;46.46
22572;BME280;11452;53.368;14.658;2023-04-22T06:11:49;100989.06;;;14.46;46.56
22572;BME280;11452;53.368;14.658;2023-04-22T06:16:55;100988.21;;;14.71;46.08
22572;BME280;11452;53.368;14.658;2023-04-22T06:22:00;100981.88;;;14.97;45.64
22572;BME280;11452;53.368;14.658;2023-04-22T06:27:06;100981.33;;;15.17;45.48
22572;BME280;11452;53.368;14.658;2023-04-22T06:32:11;100982.34;;;15.40;45.06
22572;BME280;11452;53.368;14.658;2023-04-22T06:37:18;100982.27;;;15.60;44.92
22572;BME280;11452;53.368;14.658;2023-04-22T06:42:23;100980.95;;;15.84;44.51
22572;BME280;11452;53.368;14.658;2023-04-22T06:47:47;100979.69;;;15.95;44.24
22572;BME280;11452;53.368;14.658;2023-04-22T06:52:54;100981.34;;;16.09;43.88
22572;BME280;11452;53.368;14.658;2023-04-22T06:58:00;100978.94;;;16.22;43.64
22572;BME280;11452;53.368;14.658;2023-04-22T07:03:05;100972.59;;;16.35;43.31
22572;BME280;11452;53.368;14.658;2023-04-22T07:08:11;100978.90;;;16.52;43.29
22572;BME280;11452;53.368;14.658;2023-04-22T07:13:17;100974.58;;;16.73;43.04
22572;BME280;11452;53.368;14.658;2023-04-22T07:18:23;100974.12;;;16.85;42.64
22572;BME280;11452;53.368;14.658;2023-04-22T07:23:30;100968.97;;;16.99;42.31
22572;BME280;11452;53.368;14.658;2023-04-22T07:28:35;100977.09;;;17.21;42.26
22572;BME280;11452;53.368;14.658;2023-04-22T07:33:41;100978.06;;;17.37;42.11
22572;BME280;11452;53.368;14.658;2023-04-22T07:38:47;100970.42;;;17.47;41.53
22572;BME280;11452;53.368;14.658;2023-04-22T07:43:56;100967.31;;;17.63;41.49
22572;BME280;11452;53.368;14.658;2023-04-22T07:49:02;100963.57;;;17.43;41.35
22572;BME280;11452;53.368;14.658;2023-04-22T07:54:08;100948.80;;;17.64;41.27
22572;BME280;11452;53.368;14.658;2023-04-22T07:59:13;100945.35;;;17.68;41.25
22572;BME280;11452;53.368;14.658;2023-04-22T08:04:21;100941.05;;;18.03;41.31
22572;BME280;11452;53.368;14.658;2023-04-22T08:09:28;100944.78;;;18.22;40.88
22572;BME280;11452;53.368;14.658;2023-04-22T08:14:37;100939.88;;;18.43;40.59
22572;BME280;11452;53.368;14.658;2023-04-22T08:19:45;100934.23;;;18.66;40.44
22572;BME280;11452;53.368;14.658;2023-04-22T08:24:51;100935.70;;;18.86;40.22
22572;BME280;11452;53.368;14.658;2023-04-22T08:29:56;100930.91;;;18.99;39.82
22572;BME280;11452;53.368;14.658;2023-04-22T08:35:02;100926.70;;;19.16;39.55
22572;BME280;11452;53.368;14.658;2023-04-22T08:40:10;100925.30;;;19.21;38.99
22572;BME280;11452;53.368;14.658;2023-04-22T08:45:18;100935.39;;;19.34;38.54
22572;BME280;11452;53.368;14.658;2023-04-22T08:50:24;100924.77;;;19.37;37.83
22572;BME280;11452;53.368;14.658;2023-04-22T08:55:30;100920.08;;;19.39;37.23
22572;BME280;11452;53.368;14.658;2023-04-22T09:00:36;100918.53;;;19.46;36.52
22572;BME280;11452;53.368;14.658;2023-04-22T09:05:42;100919.88;;;19.61;36.12
22572;BME280;11452;53.368;14.658;2023-04-22T09:10:51;100915.81;;;19.71;35.83
22572;BME280;11452;53.368;14.658;2023-04-22T09:15:57;100908.83;;;19.88;35.57
22572;BME280;11452;53.368;14.658;2023-04-22T09:21:03;100899.12;;;20.04;35.41
22572;BME280;11452;53.368;14.658;2023-04-22T09:26:09;100899.83;;;20.06;35.04
22572;BME280;11452;53.368;14.658;2023-04-22T09:31:16;100899.84;;;20.16;35.08
22572;BME280;11452;53.368;14.658;2023-04-22T09:36:28;100896.03;;;20.23;34.55
22572;BME280;11452;53.368;14.658;2023-04-22T09:41:36;100889.60;;;20.24;34.20
22572;BME280;11452;53.368;14.658;2023-04-22T09:46:43;100886.13;;;20.18;33.83
22572;BME280;11452;53.368;14.658;2023-04-22T09:51:54;100883.25;;;20.29;33.45
22572;BME280;11452;53.368;14.658;2023-04-22T09:56:57;100875.84;;;20.21;32.87
22572;BME280;11452;53.368;14.658;2023-04-22T10:02:03;100872.31;;;20.34;32.79
22572;BME280;11452;53.368;14.658;2023-04-22T10:07:10;100868.23;;;20.34;32.52
22572;BME280;11452;53.368;14.658;2023-04-22T10:12:17;100858.44;;;20.47;32.13
22572;BME280;11452;53.368;14.658;2023-04-22T10:17:27;100858.30;;;20.49;31.99
22572;BME280;11452;53.368;14.658;2023-04-22T10:22:34;100857.58;;;20.56;32.02
22572;BME280;11452;53.368;14.658;2023-04-22T10:27:40;100856.00;;;20.77;31.89
22572;BME280;11452;53.368;14.658;2023-04-22T10:32:45;100840.73;;;20.80;31.75
22572;BME280;11452;53.368;14.658;2023-04-22T10:37:52;100841.06;;;20.91;31.87
22572;BME280;11452;53.368;14.658;2023-04-22T10:42:58;100841.86;;;20.87;32.00
22572;BME280;11452;53.368;14.658;2023-04-22T10:48:05;100824.15;;;21.11;32.03
22572;BME280;11452;53.368;14.658;2023-04-22T10:53:38;100824.31;;;20.95;32.59
22572;BME280;11452;53.368;14.658;2023-04-22T10:58:39;100812.45;;;21.00;32.98
22572;BME280;11452;53.368;14.658;2023-04-22T11:03:44;100806.09;;;20.92;33.40
22572;BME280;11452;53.368;14.658;2023-04-22T11:09:06;100807.69;;;21.12;33.65
22572;BME280;11452;53.368;14.658;2023-04-22T11:13:59;100805.32;;;21.13;34.00
22572;BME280;11452;53.368;14.658;2023-04-22T11:19:05;100806.92;;;21.06;33.81
22572;BME280;11452;53.368;14.658;2023-04-22T11:24:11;100788.16;;;21.26;33.80
22572;BME280;11452;53.368;14.658;2023-04-22T11:29:16;100797.02;;;21.28;33.41
22572;BME280;11452;53.368;14.658;2023-04-22T11:34:22;100787.81;;;21.43;33.75
22572;BME280;11452;53.368;14.658;2023-04-22T11:39:35;100775.68;;;21.55;33.42
22572;BME280;11452;53.368;14.658;2023-04-22T11:44:44;100761.15;;;21.64;33.00
22572;BME280;11452;53.368;14.658;2023-04-22T11:49:57;100765.63;;;21.69;32.83
22572;BME280;11452;53.368;14.658;2023-04-22T11:55:05;100757.47;;;21.73;32.42
22572;BME280;11452;53.368;14.658;2023-04-22T12:00:14;100755.72;;;21.86;32.52
22572;BME280;11452;53.368;14.658;2023-04-22T12:05:21;100761.16;;;21.90;32.04
22572;BME280;11452;53.368;14.658;2023-04-22T12:10:28;100746.50;;;21.83;31.20
22572;BME280;11452;53.368;14.658;2023-04-22T12:15:38;100737.21;;;21.68;31.07
22572;BME280;11452;53.368;14.658;2023-04-22T12:20:44;100737.47;;;22.00;30.91
22572;BME280;11452;53.368;14.658;2023-04-22T12:25:50;100730.95;;;21.97;30.72
22572;BME280;11452;53.368;14.658;2023-04-22T12:30:55;100732.02;;;22.30;30.48
22572;BME280;11452;53.368;14.658;2023-04-22T12:36:01;100727.84;;;21.88;28.98
22572;BME280;11452;53.368;14.658;2023-04-22T12:41:07;100728.41;;;22.22;30.13
22572;BME280;11452;53.368;14.658;2023-04-22T12:46:13;100713.81;;;22.31;29.85
22572;BME280;11452;53.368;14.658;2023-04-22T12:51:19;100711.34;;;22.50;29.87
22572;BME280;11452;53.368;14.658;2023-04-22T12:56:25;100702.13;;;22.81;30.14
22572;BME280;11452;53.368;14.658;2023-04-22T13:01:31;100694.40;;;22.72;29.74
22572;BME280;11452;53.368;14.658;2023-04-22T13:06:38;100691.56;;;22.77;29.59
22572;BME280;11452;53.368;14.658;2023-04-22T13:11:46;100690.38;;;22.88;29.91
22572;BME280;11452;53.368;14.658;2023-04-22T13:16:52;100688.67;;;22.87;29.51
22572;BME280;11452;53.368;14.658;2023-04-22T13:21:58;100685.44;;;22.88;29.44
22572;BME280;11452;53.368;14.658;2023-04-22T13:27:03;100670.95;;;22.79;29.56
22572;BME280;11452;53.368;14.658;2023-04-22T13:32:11;100670.16;;;23.15;29.61
22572;BME280;11452;53.368;14.658;2023-04-22T13:37:16;100666.92;;;23.32;29.42
22572;BME280;11452;53.368;14.658;2023-04-22T13:42:23;100669.45;;;23.21;29.24
22572;BME280;11452;53.368;14.658;2023-04-22T13:47:29;100665.70;;;23.38;28.81
22572;BME280;11452;53.368;14.658;2023-04-22T13:52:35;100658.94;;;23.55;28.92
22572;BME280;11452;53.368;14.658;2023-04-22T13:57:41;100655.33;;;23.70;28.83
22572;BME280;11452;53.368;14.658;2023-04-22T14:02:46;100648.50;;;23.74;28.57
22572;BME280;11452;53.368;14.658;2023-04-22T14:07:53;100642.02;;;23.71;28.31
22572;BME280;11452;53.368;14.658;2023-04-22T14:12:59;100632.77;;;23.85;28.25
22572;BME280;11452;53.368;14.658;2023-04-22T14:18:04;100634.00;;;23.66;28.03
22572;BME280;11452;53.368;14.658;2023-04-22T14:23:10;100619.45;;;23.81;28.45
22572;BME280;11452;53.368;14.658;2023-04-22T14:28:16;100610.57;;;23.88;28.23
22572;BME280;11452;53.368;14.658;2023-04-22T14:33:23;100609.16;;;23.96;27.99
22572;BME280;11452;53.368;14.658;2023-04-22T14:38:28;100612.20;;;24.09;28.28
22572;BME280;11452;53.368;14.658;2023-04-22T14:43:34;100606.75;;;24.09;28.35
22572;BME280;11452;53.368;14.658;2023-04-22T14:48:39;100597.47;;;24.18;28.04
22572;BME280;11452;53.368;14.658;2023-04-22T14:53:45;100593.37;;;24.18;28.03
22572;BME280;11452;53.368;14.658;2023-04-22T14:58:50;100585.34;;;24.29;28.08
22572;BME280;11452;53.368;14.658;2023-04-22T15:03:56;100582.63;;;24.25;27.91
22572;BME280;11452;53.368;14.658;2023-04-22T15:09:02;100576.66;;;24.13;27.95
22572;BME280;11452;53.368;14.658;2023-04-22T15:14:07;100580.57;;;24.27;28.07
22572;BME280;11452;53.368;14.658;2023-04-22T15:19:13;100580.92;;;24.50;27.97
22572;BME280;11452;53.368;14.658;2023-04-22T15:24:18;100568.27;;;24.54;27.93
22572;BME280;11452;53.368;14.658;2023-04-22T15:29:24;100564.48;;;24.59;27.63
22572;BME280;11452;53.368;14.658;2023-04-22T15:34:31;100559.22;;;24.53;27.50
22572;BME280;11452;53.368;14.658;2023-04-22T15:39:38;100555.74;;;24.63;27.53
22572;BME280;11452;53.368;14.658;2023-04-22T15:44:44;100552.50;;;24.64;27.59
22572;BME280;11452;53.368;14.658;2023-04-22T15:49:49;100556.13;;;24.79;27.54
22572;BME280;11452;53.368;14.658;2023-04-22T15:54:55;100548.86;;;24.94;27.56
22572;BME280;11452;53.368;14.658;2023-04-22T16:00:05;100539.68;;;25.06;27.13
22572;BME280;11452;53.368;14.658;2023-04-22T16:05:18;100537.33;;;25.22;27.19
22572;BME280;11452;53.368;14.658;2023-04-22T16:10:25;100529.02;;;25.30;27.18
22572;BME280;11452;53.368;14.658;2023-04-22T16:15:31;100525.23;;;26.34;28.26
22572;BME280;11452;53.368;14.658;2023-04-22T16:20:36;100522.03;;;27.61;27.18
22572;BME280;11452;53.368;14.658;2023-04-22T16:25:42;100516.58;;;27.91;26.23
22572;BME280;11452;53.368;14.658;2023-04-22T16:30:47;100508.03;;;28.51;26.21
22572;BME280;11452;53.368;14.658;2023-04-22T16:35:53;100506.62;;;28.88;24.76
22572;BME280;11452;53.368;14.658;2023-04-22T16:40:58;100499.20;;;28.82;24.20
22572;BME280;11452;53.368;14.658;2023-04-22T16:46:04;100497.72;;;28.86;23.74
22572;BME280;11452;53.368;14.658;2023-04-22T16:51:10;100498.36;;;28.31;22.43
22572;BME280;11452;53.368;14.658;2023-04-22T16:56:17;100490.70;;;27.38;21.76
22572;BME280;11452;53.368;14.658;2023-04-22T17:01:22;100492.33;;;26.19;21.78
22572;BME280;11452;53.368;14.658;2023-04-22T17:06:28;100478.64;;;25.53;21.86
22572;BME280;11452;53.368;14.658;2023-04-22T17:11:34;100480.21;;;24.85;22.23
22572;BME280;11452;53.368;14.658;2023-04-22T17:16:40;100475.75;;;24.46;22.65
22572;BME280;11452;53.368;14.658;2023-04-22T17:21:46;100465.91;;;24.10;22.82
22572;BME280;11452;53.368;14.658;2023-04-22T17:26:51;100462.53;;;23.73;23.19
22572;BME280;11452;53.368;14.658;2023-04-22T17:31:57;100465.33;;;23.49;23.36
22572;BME280;11452;53.368;14.658;2023-04-22T17:37:02;100463.19;;;23.20;23.72
22572;BME280;11452;53.368;14.658;2023-04-22T17:42:08;100462.41;;;22.95;23.91
22572;BME280;11452;53.368;14.658;2023-04-22T17:47:13;100465.98;;;22.67;24.20
22572;BME280;11452;53.368;14.658;2023-04-22T17:52:20;100467.34;;;22.47;24.57
22572;BME280;11452;53.368;14.658;2023-04-22T17:57:25;100466.14;;;22.21;24.89
22572;BME280;11452;53.368;14.658;2023-04-22T18:02:31;100458.79;;;22.01;25.23
22572;BME280;11452;53.368;14.658;2023-04-22T18:07:37;100460.75;;;21.83;25.56
22572;BME280;11452;53.368;14.658;2023-04-22T18:12:43;100451.34;;;21.65;25.85
22572;BME280;11452;53.368;14.658;2023-04-22T18:17:49;100456.17;;;21.41;26.20
22572;BME280;11452;53.368;14.658;2023-04-22T18:22:55;100455.56;;;21.22;26.54
22572;BME280;11452;53.368;14.658;2023-04-22T18:28:01;100452.69;;;21.01;26.85
22572;BME280;11452;53.368;14.658;2023-04-22T18:33:06;100456.12;;;20.78;27.23
22572;BME280;11452;53.368;14.658;2023-04-22T18:38:12;100458.34;;;20.60;27.60
22572;BME280;11452;53.368;14.658;2023-04-22T18:43:18;100462.59;;;20.41;27.92
22572;BME280;11452;53.368;14.658;2023-04-22T18:48:23;100462.56;;;20.23;28.29
22572;BME280;11452;53.368;14.658;2023-04-22T18:53:29;100459.34;;;20.06;28.62
22572;BME280;11452;53.368;14.658;2023-04-22T18:58:37;100462.89;;;19.89;29.01
22572;BME280;11452;53.368;14.658;2023-04-22T19:03:42;100462.06;;;19.75;29.31
22572;BME280;11452;53.368;14.658;2023-04-22T19:08:52;100465.95;;;19.58;29.69
22572;BME280;11452;53.368;14.658;2023-04-22T19:13:58;100464.15;;;19.40;30.05
22572;BME280;11452;53.368;14.658;2023-04-22T19:19:06;100456.37;;;19.27;30.37
22572;BME280;11452;53.368;14.658;2023-04-22T19:24:13;100456.68;;;19.14;30.66
22572;BME280;11452;53.368;14.658;2023-04-22T19:29:25;100454.31;;;19.01;31.04
22572;BME280;11452;53.368;14.658;2023-04-22T19:34:33;100456.56;;;18.92;31.25
22572;BME280;11452;53.368;14.658;2023-04-22T19:40:09;100454.66;;;18.79;31.59
22572;BME280;11452;53.368;14.658;2023-04-22T19:45:18;100459.25;;;18.69;31.90
22572;BME280;11452;53.368;14.658;2023-04-22T19:56:28;100454.68;;;18.50;32.44
22572;BME280;11452;53.368;14.658;2023-04-22T20:01:34;100443.48;;;18.40;32.75
22572;BME280;11452;53.368;14.658;2023-04-22T20:06:43;100443.38;;;18.31;33.07
22572;BME280;11452;53.368;14.658;2023-04-22T20:11:50;100437.03;;;18.27;33.40
22572;BME280;11452;53.368;14.658;2023-04-22T20:16:58;100428.62;;;18.20;33.76
22572;BME280;11452;53.368;14.658;2023-04-22T20:22:06;100420.45;;;18.16;34.00
22572;BME280;11452;53.368;14.658;2023-04-22T20:27:19;100427.72;;;18.16;34.18
22572;BME280;11452;53.368;14.658;2023-04-22T20:32:27;100427.14;;;18.12;34.41
22572;BME280;11452;53.368;14.658;2023-04-22T20:37:35;100425.84;;;18.07;34.66
22572;BME280;11452;53.368;14.658;2023-04-22T20:42:41;100421.22;;;18.03;34.81
22572;BME280;11452;53.368;14.658;2023-04-22T20:47:47;100420.08;;;18.06;34.88
22572;BME280;11452;53.368;14.658;2023-04-22T20:52:54;100414.73;;;18.00;34.97
22572;BME280;11452;53.368;14.658;2023-04-22T20:57:59;100406.71;;;17.94;35.10
22572;BME280;11452;53.368;14.658;2023-04-22T21:03:06;100401.58;;;17.91;35.15
22572;BME280;11452;53.368;14.658;2023-04-22T21:08:23;100404.56;;;17.88;35.27
22572;BME280;11452;53.368;14.658;2023-04-22T21:13:29;100401.42;;;17.83;35.30
22572;BME280;11452;53.368;14.658;2023-04-22T21:18:38;100393.53;;;17.76;35.49
22572;BME280;11452;53.368;14.658;2023-04-22T21:23:45;100396.59;;;17.77;35.52
22572;BME280;11452;53.368;14.658;2023-04-22T21:28:51;100394.89;;;17.76;35.54
22572;BME280;11452;53.368;14.658;2023-04-22T21:33:57;100395.30;;;17.72;35.55
22572;BME280;11452;53.368;14.658;2023-04-22T21:39:03;100388.46;;;17.68;35.65
22572;BME280;11452;53.368;14.658;2023-04-22T21:44:09;100383.33;;;17.64;35.74
22572;BME280;11452;53.368;14.658;2023-04-22T21:49:16;100380.98;;;17.65;35.73
22572;BME280;11452;53.368;14.658;2023-04-22T21:54:23;100370.17;;;17.65;35.71
22572;BME280;11452;53.368;14.658;2023-04-22T21:59:29;100370.09;;;17.61;35.76
22572;BME280;11452;53.368;14.658;2023-04-22T22:04:36;100369.37;;;17.59;35.75
22572;BME280;11452;53.368;14.658;2023-04-22T22:09:42;100365.38;;;17.54;35.86
22572;BME280;11452;53.368;14.658;2023-04-22T22:15:18;100368.84;;;17.50;35.92
22572;BME280;11452;53.368;14.658;2023-04-22T22:20:23;100373.12;;;17.43;36.09
22572;BME280;11452;53.368;14.658;2023-04-22T22:25:30;100368.04;;;17.44;36.05
22572;BME280;11452;53.368;14.658;2023-04-22T22:30:35;100359.88;;;17.40;36.17
22572;BME280;11452;53.368;14.658;2023-04-22T22:35:41;100363.98;;;17.35;36.37
22572;BME280;11452;53.368;14.658;2023-04-22T22:40:46;100355.30;;;17.31;36.53
22572;BME280;11452;53.368;14.658;2023-04-22T22:45:52;100352.31;;;17.24;36.77
22572;BME280;11452;53.368;14.658;2023-04-22T22:50:58;100354.71;;;17.27;36.80
22572;BME280;11452;53.368;14.658;2023-04-22T22:56:04;100346.33;;;17.21;36.93
22572;BME280;11452;53.368;14.658;2023-04-22T23:01:10;100343.45;;;17.13;37.08
22572;BME280;11452;53.368;14.658;2023-04-22T23:06:15;100342.67;;;17.07;37.74
22572;BME280;11452;53.368;14.658;2023-04-22T23:11:21;100335.34;;;17.13;37.66
22572;BME280;11452;53.368;14.658;2023-04-22T23:16:26;100327.46;;;17.06;37.99
22572;BME280;11452;53.368;14.658;2023-04-22T23:21:33;100319.28;;;17.11;38.21
22572;BME280;11452;53.368;14.658;2023-04-22T23:26:40;100321.39;;;17.08;38.34
22572;BME280;11452;53.368;14.658;2023-04-22T23:31:46;100317.65;;;17.05;38.45
22572;BME280;11452;53.368;14.658;2023-04-22T23:36:54;100309.10;;;17.00;38.69
22572;BME280;11452;53.368;14.658;2023-04-22T23:42:01;100306.53;;;16.98;38.71
22572;BME280;11452;53.368;14.658;2023-04-22T23:47:07;100295.15;;;16.94;38.79
22572;BME280;11452;53.368;14.658;2023-04-22T23:52:12;100295.42;;;16.91;38.99
22572;BME280;11452;53.368;14.658;2023-04-22T23:57:18;100284.48;;;16.93;39.08
